Time;durP1;ratioP1;P1;durP2;ratioP2;P2;SDS_P1;SDS_P2;PMS_P1;PMS_P2;Temp;Humidity;BMP_temperature;BMP_pressure;BME280_temperature;BME280_humidity;BME280_pressure;Samples;Min_cycle;Max_cycle;Signal;HPM_P1;HPM_P2
2023/02/08 00:00:39;;;;;;;39.53;21.50;;;-1.60;62.70;;;;;;4994990;28;20105;-74
2023/02/08 00:03:05;;;;;;;35.67;21.92;;;-1.60;62.90;;;;;;4994989;28;20034;-73
2023/02/08 00:05:30;;;;;;;39.15;22.38;;;-1.60;63.00;;;;;;4994942;28;20026;-73
2023/02/08 00:07:56;;;;;;;36.17;22.38;;;-1.50;62.80;;;;;;4995044;28;20394;-73
2023/02/08 00:10:21;;;;;;;35.97;20.88;;;-1.60;62.40;;;;;;4994871;28;20460;-73
2023/02/08 00:12:47;;;;;;;39.17;21.25;;;-1.60;62.40;;;;;;4994054;28;20081;-73
2023/02/08 00:15:12;;;;;;;33.45;21.25;;;-1.50;62.40;;;;;;4994846;28;20379;-74
2023/02/08 00:17:38;;;;;;;35.17;20.65;;;-1.60;62.40;;;;;;4994531;28;20085;-73
2023/02/08 00:20:04;;;;;;;47.65;25.50;;;-1.60;62.60;;;;;;4994599;28;20026;-74
2023/02/08 00:22:30;;;;;;;46.53;23.02;;;-1.90;62.30;;;;;;4977028;28;20495;-74
2023/02/08 00:24:55;;;;;;;34.35;19.27;;;-2.00;63.10;;;;;;4994213;28;20482;-75
2023/02/08 00:27:21;;;;;;;36.08;20.23;;;-2.00;62.30;;;;;;4994327;28;20046;-73
2023/02/08 00:29:47;;;;;;;30.35;18.95;;;-2.00;61.90;;;;;;5012384;28;20030;-75
2023/02/08 00:32:12;;;;;;;28.38;16.38;;;-1.90;61.50;;;;;;5014024;28;20037;-74
2023/02/08 00:34:38;;;;;;;27.60;16.42;;;-1.80;60.50;;;;;;5013848;28;20033;-74
2023/02/08 00:37:04;;;;;;;30.60;18.80;;;-1.80;59.90;;;;;;5002878;28;20030;-75
2023/02/08 00:39:30;;;;;;;27.95;17.52;;;-1.80;59.90;;;;;;4994137;28;20112;-73
2023/02/08 00:41:56;;;;;;;28.52;17.48;;;-1.70;60.20;;;;;;4993893;28;20085;-75
2023/02/08 00:44:21;;;;;;;32.17;18.15;;;-1.70;59.70;;;;;;4993964;28;20596;-73
2023/02/08 00:46:47;;;;;;;29.13;17.27;;;-1.70;59.10;;;;;;4976948;28;20526;-74
2023/02/08 00:49:13;;;;;;;31.23;18.17;;;-1.70;59.20;;;;;;4976913;28;20023;-75
2023/02/08 00:51:38;;;;;;;29.75;16.98;;;-1.70;59.40;;;;;;4976717;28;20046;-74
2023/02/08 00:54:04;;;;;;;33.97;19.50;;;-1.70;59.50;;;;;;4976324;28;20058;-73
2023/02/08 00:56:29;;;;;;;28.23;16.88;;;-1.80;59.70;;;;;;4976923;28;20026;-73
2023/02/08 00:58:55;;;;;;;30.65;17.08;;;-1.80;60.10;;;;;;4976633;28;20030;-73
2023/02/08 01:01:21;;;;;;;27.77;15.73;;;-1.90;59.10;;;;;;4976729;28;20023;-73
2023/02/08 01:03:47;;;;;;;28.05;15.95;;;-1.90;58.20;;;;;;4993549;28;20050;-74
2023/02/08 01:06:16;;;;;;;25.30;14.65;;;-1.90;57.80;;;;;;4976255;28;20422;-75
2023/02/08 01:08:42;;;;;;;30.25;17.13;;;-1.80;58.10;;;;;;4976604;28;20030;-75
2023/02/08 01:11:13;;;;;;;31.67;18.02;;;-1.90;58.30;;;;;;4976466;28;20080;-74
2023/02/08 01:13:39;;;;;;;30.23;16.00;;;-1.80;59.10;;;;;;4976323;28;20034;-74
2023/02/08 01:16:12;;;;;;;28.05;16.67;;;-1.90;59.00;;;;;;4976613;28;20030;-74
2023/02/08 01:18:40;;;;;;;26.85;15.88;;;-1.90;59.90;;;;;;4976493;28;20026;-73
2023/02/08 01:21:07;;;;;;;31.60;16.58;;;-1.90;58.60;;;;;;4976050;28;20034;-74
2023/02/08 01:23:33;;;;;;;27.20;15.15;;;-1.90;58.20;;;;;;4976103;28;20026;-73
2023/02/08 01:25:58;;;;;;;24.58;14.38;;;-1.80;57.90;;;;;;4993527;28;20085;-73
2023/02/08 01:28:24;;;;;;;22.52;14.35;;;-2.00;57.00;;;;;;4993273;28;20081;-73
2023/02/08 01:30:49;;;;;;;24.95;15.65;;;-2.00;56.10;;;;;;4993378;28;20025;-73
2023/02/08 01:33:15;;;;;;;26.45;15.38;;;-2.00;57.20;;;;;;4993396;28;20034;-73
2023/02/08 01:35:40;;;;;;;29.95;16.10;;;-2.00;57.80;;;;;;4993477;28;20490;-75
2023/02/08 01:38:06;;;;;;;30.92;15.77;;;-1.90;58.10;;;;;;4993205;28;20486;-73
2023/02/08 01:40:32;;;;;;;26.25;15.27;;;-1.90;58.30;;;;;;4993510;28;20023;-73
2023/02/08 01:42:57;;;;;;;30.42;16.58;;;-1.90;58.50;;;;;;4975974;28;20363;-73
2023/02/08 01:45:28;;;;;;;32.95;18.05;;;-2.00;58.40;;;;;;4993612;28;20054;-75
2023/02/08 01:48:09;;;;;;;37.35;18.63;;;-2.00;58.50;;;;;;4993433;28;20026;-73
2023/02/08 01:51:00;;;;;;;30.20;17.73;;;-2.00;58.30;;;;;;4993471;28;20046;-73
2023/02/08 01:53:28;;;;;;;30.05;17.25;;;-2.10;58.60;;;;;;4992793;28;20414;-73
2023/02/08 01:55:57;;;;;;;29.55;17.55;;;-2.10;58.70;;;;;;4993300;28;20019;-73
2023/02/08 01:58:25;;;;;;;29.20;15.85;;;-2.10;59.20;;;;;;4993421;28;20050;-73
2023/02/08 02:00:51;;;;;;;27.58;16.33;;;-2.10;59.30;;;;;;4976081;28;20135;-73
2023/02/08 02:03:19;;;;;;;27.90;16.00;;;-2.20;59.30;;;;;;4993463;28;20054;-75
2023/02/08 02:05:49;;;;;;;25.70;15.68;;;-2.20;59.50;;;;;;4993100;28;20521;-73
2023/02/08 02:08:15;;;;;;;23.35;14.30;;;-2.20;59.60;;;;;;4993371;28;20034;-73
2023/02/08 02:10:41;;;;;;;26.73;15.05;;;-2.20;59.90;;;;;;4993296;28;20027;-73
2023/02/08 02:13:11;;;;;;;21.75;14.02;;;-2.30;59.80;;;;;;4993297;28;20064;-73
2023/02/08 02:15:37;;;;;;;24.70;13.65;;;-2.20;59.60;;;;;;4993057;28;20395;-72
2023/02/08 02:18:05;;;;;;;26.85;14.50;;;-2.30;59.70;;;;;;4993209;28;20026;-73
2023/02/08 02:21:07;;;;;;;22.45;13.35;;;-2.40;59.60;;;;;;4993330;28;20018;-73
2023/02/08 02:24:17;;;;;;;23.48;13.00;;;-2.30;59.70;;;;;;4975433;28;20027;-72
2023/02/08 02:27:01;;;;;;;19.92;12.70;;;-2.40;59.50;;;;;;4977415;28;20042;-74
2023/02/08 02:29:26;;;;;;;19.45;12.55;;;-2.30;59.50;;;;;;4993254;28;20024;-72
2023/02/08 02:32:33;;;;;;;20.63;13.00;;;-2.40;59.10;;;;;;4975555;28;20105;-73
2023/02/08 02:35:23;;;;;;;19.92;11.95;;;-2.40;59.00;;;;;;4972961;28;20042;-73
2023/02/08 02:38:25;;;;;;;19.50;11.88;;;-2.50;59.00;;;;;;4996297;28;20030;-73
2023/02/08 02:43:40;;;;;;;19.10;12.60;;;-2.40;58.80;;;;;;4996445;28;20034;-75
2023/02/08 02:44:27;;;;;;;16.83;11.45;;;-2.50;58.70;;;;;;4996180;28;20080;-75
2023/02/08 02:47:05;;;;;;;18.75;12.10;;;-2.50;58.80;;;;;;4995981;28;20038;-75
2023/02/08 02:49:43;;;;;;;16.65;10.77;;;-2.50;59.10;;;;;;4996476;28;20489;-74
2023/02/08 02:52:16;;;;;;;20.70;12.27;;;-2.60;58.90;;;;;;4996213;28;20022;-73
2023/02/08 02:54:53;;;;;;;20.63;12.65;;;-2.60;58.90;;;;;;4996323;28;20045;-80
2023/02/08 02:57:28;;;;;;;18.92;12.45;;;-2.70;59.10;;;;;;4996415;28;20018;-82
2023/02/08 02:59:54;;;;;;;22.60;12.95;;;-2.70;59.20;;;;;;4996144;28;20491;-82
2023/02/08 03:02:20;;;;;;;19.48;13.05;;;-2.70;59.50;;;;;;4996310;28;20088;-76
2023/02/08 03:04:49;;;;;;;21.65;13.65;;;-2.70;59.50;;;;;;4995979;28;20022;-74
2023/02/08 03:07:20;;;;;;;23.02;12.38;;;-2.70;59.40;;;;;;4996208;28;20091;-74
2023/02/08 03:10:12;;;;;;;22.95;13.80;;;-2.70;59.30;;;;;;4995975;28;20042;-74
2023/02/08 03:13:04;;;;;;;21.98;14.38;;;-2.70;59.30;;;;;;4995964;28;20084;-74
2023/02/08 03:15:38;;;;;;;23.90;14.25;;;-2.80;59.10;;;;;;4995896;28;20026;-75
2023/02/08 03:18:10;;;;;;;22.10;14.25;;;-2.80;59.10;;;;;;4995766;28;20019;-75
2023/02/08 03:21:13;;;;;;;23.80;14.85;;;-2.90;58.60;;;;;;4978263;28;20026;-74
2023/02/08 03:24:03;;;;;;;21.95;13.77;;;-2.90;58.40;;;;;;4995668;28;20022;-73
2023/02/08 03:26:53;;;;;;;21.45;13.35;;;-2.90;58.10;;;;;;4995731;28;20368;-74
2023/02/08 03:29:37;;;;;;;21.17;13.30;;;-3.00;58.10;;;;;;4976212;28;20053;-74
2023/02/08 03:32:09;;;;;;;26.75;15.50;;;-3.10;58.10;;;;;;4976146;28;20030;-75
2023/02/08 03:34:50;;;;;;;24.80;13.98;;;-3.20;58.20;;;;;;4976075;28;20034;-74
2023/02/08 03:37:22;;;;;;;25.67;14.07;;;-3.30;58.70;;;;;;4975868;28;20391;-75
2023/02/08 03:39:51;;;;;;;26.85;15.68;;;-3.20;58.70;;;;;;4958630;28;20492;-74
2023/02/08 03:42:23;;;;;;;23.02;14.55;;;-3.30;59.00;;;;;;4976145;28;20027;-74
2023/02/08 03:45:04;;;;;;;22.40;14.60;;;-3.30;59.30;;;;;;4958375;28;20566;-74
2023/02/08 03:47:35;;;;;;;26.15;15.05;;;-3.30;59.30;;;;;;4975053;28;20165;-75
2023/02/08 03:50:06;;;;;;;23.65;14.07;;;-3.30;58.90;;;;;;4975930;28;20033;-75
2023/02/08 03:52:33;;;;;;;22.13;13.77;;;-3.30;58.90;;;;;;4975899;28;20043;-75
2023/02/08 03:55:29;;;;;;;23.20;13.20;;;-3.30;59.00;;;;;;4975652;28;20019;-73
2023/02/08 03:58:00;;;;;;;27.98;15.05;;;-3.20;58.60;;;;;;4960075;28;20062;-74
2023/02/08 04:00:27;;;;;;;27.30;13.80;;;-3.20;58.10;;;;;;4975717;28;20029;-79
2023/02/08 04:02:58;;;;;;;23.70;15.07;;;-3.20;57.90;;;;;;4975568;28;20110;-80
2023/02/08 04:05:24;;;;;;;23.15;13.35;;;-3.30;57.90;;;;;;4975576;28;20026;-75
2023/02/08 04:07:50;;;;;;;21.20;13.60;;;-3.30;58.00;;;;;;4975617;28;20075;-76
2023/02/08 04:10:16;;;;;;;22.40;13.30;;;-3.30;57.50;;;;;;4975638;28;20023;-77
2023/02/08 04:12:42;;;;;;;23.15;13.25;;;-3.30;57.30;;;;;;4975296;28;20546;-79
2023/02/08 04:15:08;;;;;;;22.77;14.15;;;-3.30;57.20;;;;;;4975805;28;20023;-75
2023/02/08 04:17:34;;;;;;;25.42;14.73;;;-3.30;56.70;;;;;;4957794;28;20027;-74
2023/02/08 04:19:59;;;;;;;22.67;13.68;;;-3.30;57.00;;;;;;4958035;28;20077;-73
2023/02/08 04:22:25;;;;;;;19.48;12.45;;;-3.30;57.30;;;;;;4975003;28;20041;-73
2023/02/08 04:24:50;;;;;;;22.23;13.48;;;-3.30;56.50;;;;;;4975102;28;20137;-76
2023/02/08 04:27:16;;;;;;;19.55;12.40;;;-3.20;55.80;;;;;;4980652;28;20049;-75
2023/02/08 04:29:41;;;;;;;19.23;12.18;;;-3.30;55.90;;;;;;4994369;28;20018;-76
2023/02/08 04:32:10;;;;;;;20.35;13.27;;;-3.20;55.90;;;;;;4994496;28;20029;-75
2023/02/08 04:34:37;;;;;;;22.55;12.95;;;-3.10;55.80;;;;;;4994446;28;20037;-74
2023/02/08 04:37:03;;;;;;;21.45;12.85;;;-3.10;55.30;;;;;;4994307;28;20022;-80
2023/02/08 04:39:28;;;;;;;19.85;12.15;;;-3.10;55.30;;;;;;4995813;28;20105;-78
2023/02/08 04:41:54;;;;;;;21.15;13.02;;;-3.10;55.50;;;;;;4995049;28;20034;-80
2023/02/08 04:44:19;;;;;;;19.63;11.63;;;-3.20;54.80;;;;;;4994722;28;20053;-81
2023/02/08 04:46:45;;;;;;;17.23;11.10;;;-3.20;54.90;;;;;;4994457;28;20022;-81
2023/02/08 04:49:10;;;;;;;21.70;12.10;;;-3.30;55.00;;;;;;4994088;28;20106;-81
2023/02/08 04:51:36;;;;;;;22.77;12.95;;;-3.30;55.20;;;;;;4977302;28;20061;-82
2023/02/08 04:54:02;;;;;;;24.52;12.73;;;-3.30;55.50;;;;;;5001159;28;20497;-82
2023/02/08 04:56:27;;;;;;;21.92;13.90;;;-3.30;56.30;;;;;;5008038;28;20030;-78
2023/02/08 04:58:53;;;;;;;24.38;13.80;;;-3.40;56.60;;;;;;5007491;28;20034;-77
2023/02/08 05:01:18;;;;;;;23.92;12.88;;;-3.40;56.00;;;;;;5010546;28;20535;-81
2023/02/08 05:03:44;;;;;;;25.65;14.52;;;-3.50;56.60;;;;;;4989423;28;20022;-81
2023/02/08 05:06:09;;;;;;;23.42;14.40;;;-3.60;56.60;;;;;;5003366;28;20031;-83
2023/02/08 05:08:35;;;;;;;21.58;13.65;;;-3.50;56.70;;;;;;4994418;28;20026;-83
2023/02/08 05:11:00;;;;;;;24.20;13.18;;;-3.50;55.90;;;;;;4994036;28;20057;-81
2023/02/08 05:13:26;;;;;;;22.70;13.77;;;-3.50;55.90;;;;;;4994014;28;20395;-81
2023/02/08 05:15:52;;;;;;;24.33;13.85;;;-3.50;55.80;;;;;;4976670;28;20018;-82
2023/02/08 05:18:17;;;;;;;22.15;13.45;;;-3.40;55.60;;;;;;4996686;28;20394;-80
2023/02/08 05:20:43;;;;;;;21.30;12.02;;;-3.40;55.80;;;;;;4993810;28;20383;-81
2023/02/08 05:23:09;;;;;;;22.52;12.93;;;-3.40;56.20;;;;;;4993941;28;20041;-82
2023/02/08 05:25:36;;;;;;;20.40;12.60;;;-3.50;56.60;;;;;;4995651;28;20030;-81
2023/02/08 05:28:02;;;;;;;22.23;12.18;;;-3.50;57.30;;;;;;4976052;28;20485;-80
2023/02/08 05:30:28;;;;;;;25.85;13.70;;;-3.60;57.40;;;;;;4993813;28;20105;-80
2023/02/08 05:32:53;;;;;;;23.33;12.55;;;-3.60;57.80;;;;;;4994494;28;20081;-81
2023/02/08 05:35:19;;;;;;;20.25;13.07;;;-3.70;58.20;;;;;;4976179;28;20065;-80
2023/02/08 05:37:44;;;;;;;19.80;12.45;;;-3.70;58.30;;;;;;4993511;28;20030;-80
2023/02/08 05:40:12;;;;;;;28.83;13.93;;;-3.80;58.60;;;;;;5005443;28;20452;-80
2023/02/08 05:42:38;;;;;;;21.83;12.18;;;-3.80;58.60;;;;;;4995598;28;20121;-81
2023/02/08 05:45:04;;;;;;;20.48;12.32;;;-3.90;59.00;;;;;;4993320;28;20030;-77
2023/02/08 05:47:30;;;;;;;26.27;13.05;;;-3.80;59.20;;;;;;4993283;28;20377;-78
2023/02/08 05:49:55;;;;;;;25.23;13.10;;;-3.90;59.40;;;;;;4993262;28;20037;-81
2023/02/08 05:52:20;;;;;;;19.10;12.13;;;-3.80;59.50;;;;;;4993299;28;20089;-80
2023/02/08 05:54:46;;;;;;;22.92;12.80;;;-3.90;59.90;;;;;;4993562;28;20058;-75
2023/02/08 05:57:12;;;;;;;21.45;13.45;;;-3.90;59.80;;;;;;4993437;28;20454;-79
2023/02/08 05:59:37;;;;;;;22.83;13.68;;;-3.90;60.10;;;;;;4975880;28;20027;-80
2023/02/08 06:02:03;;;;;;;25.98;15.10;;;-4.00;60.10;;;;;;4993217;28;20438;-80
2023/02/08 06:04:28;;;;;;;29.50;15.90;;;-4.00;60.20;;;;;;4976039;28;20049;-77
2023/02/08 06:06:54;;;;;;;26.02;14.57;;;-4.10;60.30;;;;;;4993141;28;20034;-78
2023/02/08 06:09:19;;;;;;;26.70;15.65;;;-4.10;60.40;;;;;;4992782;28;20022;-77
2023/02/08 06:11:45;;;;;;;25.60;15.10;;;-4.10;61.60;;;;;;4994994;28;20026;-77
2023/02/08 06:14:10;;;;;;;26.67;16.98;;;-4.10;60.70;;;;;;4996828;28;20038;-76
2023/02/08 06:16:36;;;;;;;40.85;17.90;;;-4.10;60.80;;;;;;4996744;28;20045;-80
2023/02/08 06:19:01;;;;;;;32.65;17.92;;;-4.10;60.70;;;;;;4996799;28;20034;-76
2023/02/08 06:21:27;;;;;;;30.92;17.17;;;-4.20;59.90;;;;;;4979890;28;20023;-80
2023/02/08 06:23:52;;;;;;;30.88;15.85;;;-4.20;60.30;;;;;;4996920;28;20327;-79
2023/02/08 06:26:18;;;;;;;37.45;17.70;;;-4.20;60.90;;;;;;4996689;28;20030;-79
2023/02/08 06:28:44;;;;;;;30.80;16.92;;;-4.20;61.20;;;;;;4996613;28;20395;-76
2023/02/08 06:31:09;;;;;;;41.85;17.70;;;-4.20;61.30;;;;;;4996001;28;20026;-75
2023/02/08 06:33:35;;;;;;;36.55;17.40;;;-4.20;61.20;;;;;;4978714;28;20042;-81
2023/02/08 06:36:00;;;;;;;32.13;16.20;;;-4.30;60.40;;;;;;4978772;28;20483;-77
2023/02/08 06:38:26;;;;;;;25.60;15.75;;;-4.30;61.00;;;;;;4996485;28;20093;-80
2023/02/08 06:40:51;;;;;;;30.58;16.73;;;-4.20;61.30;;;;;;4996490;28;20168;-78
2023/02/08 06:43:18;;;;;;;33.35;18.60;;;-4.20;61.40;;;;;;4996214;28;20030;-73
2023/02/08 06:45:45;;;;;;;34.35;17.65;;;-4.10;61.20;;;;;;4978479;28;20057;-73
2023/02/08 06:48:11;;;;;;;37.65;16.92;;;-4.10;61.30;;;;;;4996141;28;20026;-73
2023/02/08 06:50:37;;;;;;;36.50;15.82;;;-4.00;61.60;;;;;;4978401;28;20084;-74
2023/02/08 06:53:03;;;;;;;32.15;17.48;;;-4.10;61.70;;;;;;4996007;28;20058;-77
2023/02/08 06:55:29;;;;;;;33.58;19.77;;;-4.00;62.60;;;;;;4996228;28;20423;-78
2023/02/08 06:57:55;;;;;;;30.42;17.23;;;-3.80;62.70;;;;;;4996089;28;20065;-75
2023/02/08 07:00:21;;;;;;;41.55;22.08;;;-3.70;62.10;;;;;;4978472;28;20027;-75
2023/02/08 07:02:46;;;;;;;42.00;21.48;;;-3.70;60.40;;;;;;4995699;28;20402;-74
2023/02/08 07:05:13;;;;;;;37.88;21.85;;;-3.80;59.90;;;;;;4978437;28;20030;-74
2023/02/08 07:07:39;;;;;;;42.92;22.60;;;-3.90;60.10;;;;;;4995778;28;20607;-73
2023/02/08 07:10:05;;;;;;;47.63;23.40;;;-3.80;60.20;;;;;;4996038;28;20132;-75
2023/02/08 07:12:35;;;;;;;46.60;22.75;;;-3.80;59.70;;;;;;4995721;28;20057;-74
2023/02/08 07:15:00;;;;;;;43.13;21.65;;;-3.90;59.60;;;;;;4995934;28;20553;-75
2023/02/08 07:17:26;;;;;;;40.17;20.13;;;-3.90;59.60;;;;;;4995750;28;20066;-75
2023/02/08 07:19:52;;;;;;;45.13;21.52;;;-3.80;59.60;;;;;;4978259;28;20484;-75
2023/02/08 07:22:17;;;;;;;38.38;20.15;;;-3.80;59.80;;;;;;4995284;28;20026;-80
2023/02/08 07:24:43;;;;;;;32.47;18.08;;;-3.80;59.80;;;;;;4995572;28;20105;-75
2023/02/08 07:27:11;;;;;;;34.70;20.20;;;-3.80;59.80;;;;;;4995332;28;20074;-75
2023/02/08 07:29:37;;;;;;;40.78;22.00;;;-3.80;59.80;;;;;;4995180;28;20077;-75
2023/02/08 07:32:04;;;;;;;44.17;23.05;;;-3.70;59.70;;;;;;4977862;28;20570;-74
2023/02/08 07:34:32;;;;;;;37.45;21.00;;;-3.70;59.20;;;;;;4995300;28;20038;-74
2023/02/08 07:36:58;;;;;;;41.13;23.08;;;-3.70;59.00;;;;;;4977683;28;20068;-74
2023/02/08 07:39:24;;;;;;;42.47;22.88;;;-3.70;59.40;;;;;;4995566;28;20057;-75
2023/02/08 07:41:50;;;;;;;35.45;20.40;;;-3.70;59.40;;;;;;4995533;28;20094;-76
2023/02/08 07:44:15;;;;;;;33.90;19.42;;;-3.60;59.60;;;;;;4990221;28;20134;-75
2023/02/08 07:46:41;;;;;;;33.30;18.35;;;-3.50;59.10;;;;;;4993804;28;20101;-75
2023/02/08 07:49:07;;;;;;;32.25;15.88;;;-3.40;58.60;;;;;;4993255;28;20093;-75
2023/02/08 07:51:33;;;;;;;23.65;13.75;;;-3.50;57.40;;;;;;4993248;28;20026;-78
2023/02/08 07:53:58;;;;;;;22.15;14.35;;;-3.40;57.00;;;;;;4976893;28;20057;-83
2023/02/08 07:56:24;;;;;;;24.60;14.45;;;-3.20;56.70;;;;;;4994346;28;20101;-75
2023/02/08 07:58:49;;;;;;;26.85;14.02;;;-3.20;56.90;;;;;;4994581;28;20035;-75
2023/02/08 08:01:15;;;;;;;20.67;13.40;;;-3.20;56.20;;;;;;4977158;28;20034;-73
2023/02/08 08:03:41;;;;;;;21.15;13.13;;;-3.10;56.20;;;;;;4977284;28;20074;-77
2023/02/08 08:06:07;;;;;;;25.30;13.77;;;-3.00;55.90;;;;;;4994186;28;20027;-73
2023/02/08 08:08:32;;;;;;;24.85;14.77;;;-2.90;56.10;;;;;;4994343;28;20030;-74
2023/02/08 08:10:58;;;;;;;22.33;12.82;;;-2.80;55.10;;;;;;4994555;28;20031;-74
2023/02/08 08:13:23;;;;;;;24.25;12.82;;;-2.80;55.60;;;;;;4994078;28;20042;-74
2023/02/08 08:15:49;;;;;;;25.50;13.77;;;-2.70;55.50;;;;;;4994528;28;20026;-74
2023/02/08 08:18:15;;;;;;;22.90;14.38;;;-2.60;55.10;;;;;;4994195;28;20038;-75
2023/02/08 08:20:41;;;;;;;23.17;13.80;;;-2.30;57.20;;;;;;4994044;28;20030;-75
2023/02/08 08:23:07;;;;;;;25.08;14.32;;;-2.00;60.70;;;;;;4993960;28;20057;-76
2023/02/08 08:25:33;;;;;;;21.83;13.55;;;-1.70;59.90;;;;;;4994397;28;20501;-75
2023/02/08 08:27:59;;;;;;;28.67;14.75;;;-1.50;56.20;;;;;;4994121;28;20058;-77
2023/02/08 08:30:25;;;;;;;27.98;14.10;;;-1.30;56.00;;;;;;4993648;28;20022;-76
2023/02/08 08:32:50;;;;;;;21.90;13.07;;;-1.30;53.40;;;;;;4994082;28;20120;-81
2023/02/08 08:35:16;;;;;;;23.80;13.82;;;-1.20;53.40;;;;;;4975798;28;20027;-80
2023/02/08 08:37:41;;;;;;;24.65;13.93;;;-0.90;53.60;;;;;;4993889;28;20109;-81
2023/02/08 08:40:08;;;;;;;21.90;14.63;;;-0.80;52.00;;;;;;4994065;28;20018;-80
2023/02/08 08:42:35;;;;;;;31.08;14.27;;;-0.90;52.70;;;;;;4993808;28;20037;-76
2023/02/08 08:45:01;;;;;;;30.33;13.18;;;-0.90;57.60;;;;;;4988494;28;20019;-76
2023/02/08 08:47:26;;;;;;;23.42;13.10;;;-0.10;64.00;;;;;;4993365;28;20023;-79
2023/02/08 08:49:52;;;;;;;21.27;13.00;;;0.50;57.10;;;;;;4993811;28;20085;-80
2023/02/08 08:52:18;;;;;;;21.83;12.65;;;0.70;49.60;;;;;;4993333;28;20085;-81
2023/02/08 08:54:43;;;;;;;22.33;12.93;;;0.50;47.20;;;;;;4993671;28;20419;-81
2023/02/08 08:57:09;;;;;;;26.42;13.77;;;0.40;47.40;;;;;;4993567;28;20064;-82
2023/02/08 08:59:34;;;;;;;20.15;12.38;;;0.40;47.90;;;;;;4993280;28;20026;-81
2023/02/08 09:02:00;;;;;;;27.52;13.57;;;0.20;48.10;;;;;;4993231;28;20034;-75
2023/02/08 09:04:25;;;;;;;21.75;12.98;;;0.30;48.80;;;;;;4993164;28;20042;-74
2023/02/08 09:06:52;;;;;;;23.30;12.98;;;0.20;48.30;;;;;;4993332;28;20026;-73
2023/02/08 09:09:19;;;;;;;23.45;13.50;;;0.20;48.80;;;;;;4993234;28;20088;-73
2023/02/08 09:11:45;;;;;;;27.17;13.68;;;0.20;48.70;;;;;;4993517;28;20044;-74
2023/02/08 09:14:11;;;;;;;24.25;13.25;;;0.20;49.00;;;;;;4993253;28;20039;-83
2023/02/08 09:16:38;;;;;;;23.40;13.57;;;0.10;49.90;;;;;;4993686;28;20029;-74
2023/02/08 09:19:06;;;;;;;24.73;12.57;;;0.30;50.00;;;;;;4993400;28;20038;-74
2023/02/08 09:21:33;;;;;;;21.80;12.45;;;0.30;49.30;;;;;;5009248;28;20030;-77
2023/02/08 09:24:00;;;;;;;18.55;12.10;;;0.30;49.70;;;;;;5012785;28;20060;-78
2023/02/08 09:26:26;;;;;;;22.08;11.63;;;0.40;49.90;;;;;;5012971;28;20030;-74
2023/02/08 09:28:52;;;;;;;26.75;11.35;;;0.50;49.40;;;;;;5012572;28;20490;-75
2023/02/08 09:31:19;;;;;;;27.90;13.25;;;0.70;49.40;;;;;;4994746;28;20057;-73
2023/02/08 09:33:45;;;;;;;21.00;11.25;;;0.90;49.80;;;;;;5012694;28;20125;-73
2023/02/08 09:36:11;;;;;;;24.08;11.65;;;1.00;48.70;;;;;;5012746;28;20022;-73
2023/02/08 09:38:38;;;;;;;21.33;11.25;;;1.20;47.90;;;;;;5013673;28;20022;-73
2023/02/08 09:41:26;;;;;;;20.55;11.20;;;1.50;47.40;;;;;;5006121;28;20637;-75
2023/02/08 09:44:34;;;;;;;22.65;12.77;;;1.70;46.80;;;;;;4990066;28;20030;-74
2023/02/08 09:47:15;;;;;;;23.90;12.07;;;1.50;46.70;;;;;;4922921;29;20035;-80
2023/02/08 09:49:50;;;;;;;21.25;10.90;;;1.60;48.30;;;;;;4992898;28;20034;-78
2023/02/08 09:52:20;;;;;;;19.90;10.70;;;1.90;46.70;;;;;;5000281;28;20026;-78
2023/02/08 09:54:50;;;;;;;25.67;11.15;;;2.30;46.80;;;;;;4997422;28;20045;-75
2023/02/08 09:57:22;;;;;;;27.05;11.43;;;2.60;45.50;;;;;;4997122;28;20426;-79
2023/02/08 10:00:11;;;;;;;20.95;10.90;;;2.70;43.60;;;;;;4997000;28;20447;-78
2023/02/08 10:02:40;;;;;;;19.38;9.85;;;3.00;43.70;;;;;;4996569;28;20029;-74
2023/02/08 10:05:12;;;;;;;18.70;9.82;;;3.40;43.20;;;;;;4996487;28;20105;-80
2023/02/08 10:07:39;;;;;;;24.45;10.95;;;3.70;40.60;;;;;;4996796;28;20030;-78
2023/02/08 10:10:10;;;;;;;24.70;11.65;;;4.00;40.00;;;;;;4979378;28;20034;-81
2023/02/08 10:13:09;;;;;;;19.40;11.00;;;4.10;39.70;;;;;;4996629;28;20038;-72
2023/02/08 10:15:50;;;;;;;29.77;12.13;;;4.10;39.20;;;;;;4996250;28;20499;-73
2023/02/08 10:18:33;;;;;;;17.23;8.90;;;4.20;38.80;;;;;;4996399;28;20078;-73
2023/02/08 10:21:08;;;;;;;15.02;7.90;;;4.40;38.10;;;;;;4995200;28;20061;-74
2023/02/08 10:24:11;;;;;;;13.23;7.20;;;4.70;35.40;;;;;;4994465;28;20034;-73
2023/02/08 10:27:03;;;;;;;14.73;6.03;;;5.00;32.50;;;;;;4993881;28;20019;-74
2023/02/08 10:29:59;;;;;;;10.32;5.85;;;5.30;32.40;;;;;;4979613;28;20051;-75
2023/02/08 10:32:49;;;;;;;8.88;5.15;;;5.80;31.20;;;;;;4975999;28;20090;-73
2023/02/08 10:35:35;;;;;;;12.25;5.13;;;6.20;29.40;;;;;;4975689;28;20034;-73
2023/02/08 10:38:20;;;;;;;12.05;5.60;;;6.50;28.60;;;;;;4976385;28;20027;-73
2023/02/08 10:40:51;;;;;;;11.90;4.95;;;6.80;27.30;;;;;;4975902;28;20034;-75
2023/02/08 10:43:41;;;;;;;8.88;4.03;;;7.00;26.40;;;;;;4975952;28;20026;-73
2023/02/08 10:46:40;;;;;;;16.13;4.60;;;6.70;24.10;;;;;;4976849;28;20039;-73
2023/02/08 10:49:20;;;;;;;9.75;4.60;;;6.90;25.30;;;;;;4976614;28;20026;-73
2023/02/08 10:51:46;;;;;;;10.73;4.38;;;7.00;24.70;;;;;;4976565;28;20173;-73
2023/02/08 10:54:13;;;;;;;9.00;4.38;;;6.80;23.70;;;;;;4971009;28;20117;-76
2023/02/08 10:56:56;;;;;;;9.07;3.95;;;6.80;24.60;;;;;;4975036;28;20535;-73
2023/02/08 10:59:27;;;;;;;10.05;4.43;;;6.60;24.40;;;;;;4976419;28;20022;-73
2023/02/08 11:01:54;;;;;;;11.90;4.45;;;6.60;24.40;;;;;;4976331;28;20023;-73
2023/02/08 11:04:20;;;;;;;8.23;3.95;;;6.70;25.00;;;;;;4975972;28;20031;-74
2023/02/08 11:06:47;;;;;;;9.02;3.70;;;6.60;25.80;;;;;;4975955;28;20452;-73
2023/02/08 11:09:30;;;;;;;7.07;3.95;;;6.70;25.60;;;;;;4975812;28;20484;-73
2023/02/08 11:11:58;;;;;;;12.40;5.32;;;6.70;25.70;;;;;;4957910;28;20519;-73
2023/02/08 11:14:30;;;;;;;7.65;3.97;;;6.90;25.30;;;;;;4974773;28;20053;-74
2023/02/08 11:16:57;;;;;;;8.18;4.10;;;7.10;25.30;;;;;;4975464;28;20019;-73
2023/02/08 11:19:41;;;;;;;9.88;4.22;;;7.20;25.10;;;;;;4975203;28;20379;-72
2023/02/08 11:22:15;;;;;;;8.70;4.22;;;7.50;25.60;;;;;;4975901;28;20090;-76
2023/02/08 11:24:42;;;;;;;7.40;4.57;;;7.60;24.70;;;;;;4975409;28;20035;-77
2023/02/08 11:27:19;;;;;;;8.77;4.20;;;7.80;25.20;;;;;;4980219;28;20039;-78
2023/02/08 11:29:45;;;;;;;7.43;4.40;;;8.00;25.50;;;;;;4994564;28;20505;-72
2023/02/08 11:32:19;;;;;;;8.32;4.00;;;8.30;24.90;;;;;;4995004;28;20019;-82
2023/02/08 11:34:44;;;;;;;10.38;4.30;;;8.40;23.60;;;;;;4994886;28;20335;-77
2023/02/08 11:37:27;;;;;;;9.35;3.85;;;8.40;23.40;;;;;;4997979;28;20026;-74
2023/02/08 11:39:55;;;;;;;8.25;3.85;;;8.60;23.40;;;;;;4995471;28;20022;-80
2023/02/08 11:42:23;;;;;;;8.63;4.35;;;8.70;22.90;;;;;;4995061;28;20091;-73
2023/02/08 11:44:49;;;;;;;7.03;4.00;;;8.80;22.70;;;;;;4977315;28;20476;-73
2023/02/08 11:47:24;;;;;;;8.23;4.32;;;9.00;23.30;;;;;;4994781;28;20097;-82
2023/02/08 11:49:58;;;;;;;8.13;4.13;;;9.10;22.70;;;;;;4994438;28;20025;-77
2023/02/08 11:52:30;;;;;;;12.60;4.47;;;9.20;22.30;;;;;;4994721;28;20058;-76
2023/02/08 11:55:17;;;;;;;11.93;4.45;;;9.30;22.60;;;;;;4994463;28;20034;-74
2023/02/08 11:58:04;;;;;;;7.03;3.95;;;9.60;22.50;;;;;;4989695;28;20370;-74
2023/02/08 12:00:35;;;;;;;16.27;4.55;;;9.80;22.50;;;;;;4994499;28;20085;-77
2023/02/08 12:03:05;;;;;;;7.05;3.90;;;10.00;21.60;;;;;;4994474;28;20388;-73
2023/02/08 12:05:42;;;;;;;15.95;5.22;;;10.20;21.20;;;;;;4994514;28;20022;-74
2023/02/08 12:08:33;;;;;;;10.88;4.40;;;10.30;20.90;;;;;;4993977;28;20023;-73
2023/02/08 12:11:11;;;;;;;6.25;4.05;;;10.50;20.50;;;;;;4977016;28;20066;-74
2023/02/08 12:13:45;;;;;;;7.82;4.25;;;10.50;19.80;;;;;;4994540;28;20486;-73
2023/02/08 12:16:22;;;;;;;7.97;4.38;;;10.50;20.10;;;;;;4994309;28;20029;-73
2023/02/08 12:19:25;;;;;;;8.52;4.43;;;10.60;20.60;;;;;;4994338;28;20025;-73
2023/02/08 12:22:12;;;;;;;6.97;4.00;;;10.70;19.80;;;;;;4994451;28;20029;-73
2023/02/08 12:24:40;;;;;;;12.35;4.75;;;11.00;19.50;;;;;;4976605;28;20435;-74
2023/02/08 12:27:34;;;;;;;8.27;4.75;;;11.20;19.20;;;;;;4994133;28;20130;-74
2023/02/08 12:30:10;;;;;;;7.30;5.05;;;11.40;19.50;;;;;;4993758;28;20030;-74
2023/02/08 12:33:04;;;;;;;10.60;4.60;;;11.60;19.40;;;;;;4993877;28;20035;-73
2023/02/08 12:35:51;;;;;;;13.05;5.35;;;11.90;19.10;;;;;;4993932;28;20022;-74
2023/02/08 12:41:34;;;;;;;11.48;4.88;;;12.20;17.50;;;;;;4993916;28;20110;-75
2023/02/08 12:44:16;;;;;;;9.10;4.90;;;12.30;17.50;;;;;;4994041;28;20030;-73
2023/02/08 12:47:15;;;;;;;8.05;4.47;;;12.50;17.70;;;;;;4993829;28;20395;-74
2023/02/08 12:50:18;;;;;;;11.02;5.70;;;12.70;17.50;;;;;;4993920;28;20018;-74
2023/02/08 12:52:56;;;;;;;9.45;5.45;;;12.80;17.00;;;;;;4993438;28;20030;-74
2023/02/08 12:55:36;;;;;;;11.00;5.13;;;12.40;16.80;;;;;;4993699;28;20459;-73